Time;durP1;ratioP1;P1;durP2;ratioP2;P2;SDS_P1;SDS_P2;PMS_P1;PMS_P2;Temp;Humidity;BMP_temperature;BMP_pressure;BME280_temperature;BME280_humidity;BME280_pressure;Samples;Min_cycle;Max_cycle;Signal;HPM_P1;HPM_P2
2023/03/24 00:02:02;;;;;;;;;;;;;;;4.61;94.37;99535.97;5133824;27;19912;-68
2023/03/24 00:04:28;;;;;;;;;;;;;;;4.53;93.51;99544.66;5134354;27;19918;-69
2023/03/24 00:06:53;;;;;;;;;;;;;;;4.48;94.30;99541.66;5134673;27;19934;-69
2023/03/24 00:09:19;;;;;;;;;;;;;;;4.46;94.43;99545.44;5134333;27;19918;-67
2023/03/24 00:11:44;;;;;;;;;;;;;;;4.43;94.99;99548.38;5134369;27;19915;-68
2023/03/24 00:14:12;;;;;;;;;;;;;;;4.41;94.64;99551.19;5133522;27;19912;-69
2023/03/24 00:16:41;;;;;;;;;;;;;;;4.39;94.52;99547.88;5133162;27;20011;-69
2023/03/24 00:19:07;;;;;;;;;;;;;;;4.38;94.92;99555.94;5133546;28;19915;-67
2023/03/24 00:21:32;;;;;;;;;;;;;;;4.40;94.97;99548.69;5134044;28;19918;-68
2023/03/24 00:24:00;;;;;;;;;;;;;;;4.43;95.19;99546.56;5133865;28;19930;-69
2023/03/24 00:26:25;;;;;;;;;;;;;;;4.50;95.45;99547.63;5133653;28;20278;-70
2023/03/24 00:28:51;;;;;;;;;;;;;;;4.52;95.05;99537.75;5133154;28;19915;-69
2023/03/24 00:31:16;;;;;;;;;;;;;;;4.54;95.43;99541.03;5133319;28;19912;-68
2023/03/24 00:33:43;;;;;;;;;;;;;;;4.56;95.12;99538.25;5133253;28;19916;-68
2023/03/24 00:36:11;;;;;;;;;;;;;;;4.58;94.79;99526.56;5133469;28;20298;-68
2023/03/24 00:38:38;;;;;;;;;;;;;;;4.62;94.94;99527.91;5133383;28;19968;-69
2023/03/24 00:41:04;;;;;;;;;;;;;;;4.62;95.08;99524.44;5133965;28;19912;-71
2023/03/24 00:43:30;;;;;;;;;;;;;;;4.61;94.47;99530.72;5135227;28;19911;-70
2023/03/24 00:46:07;;;;;;;;;;;;;;;4.60;95.17;99529.06;5134254;28;19911;-70
2023/03/24 00:48:32;;;;;;;;;;;;;;;4.60;94.77;99529.06;5133843;28;20014;-70
2023/03/24 00:51:00;;;;;;;;;;;;;;;4.53;94.62;99526.22;5133648;28;19976;-68
2023/03/24 00:53:28;;;;;;;;;;;;;;;4.47;95.08;99526.84;5135428;28;19972;-67
2023/03/24 00:55:54;;;;;;;;;;;;;;;4.43;95.66;99527.28;5100143;28;19911;-68
2023/03/24 00:58:22;;;;;;;;;;;;;;;4.42;95.21;99526.47;5135452;28;20447;-68
2023/03/24 01:00:51;;;;;;;;;;;;;;;4.41;95.75;99529.25;5133374;28;19964;-70
2023/03/24 01:03:18;;;;;;;;;;;;;;;4.41;96.03;99516.91;5133173;28;20002;-69
2023/03/24 01:05:47;;;;;;;;;;;;;;;4.43;96.11;99525.50;5133222;28;19915;-70
2023/03/24 01:08:13;;;;;;;;;;;;;;;4.44;96.15;99513.13;5133296;28;19911;-69
2023/03/24 01:10:52;;;;;;;;;;;;;;;4.41;96.25;99508.16;5133077;28;19911;-68
2023/03/24 01:13:18;;;;;;;;;;;;;;;4.38;95.72;99498.75;5134270;28;20011;-68
2023/03/24 01:15:46;;;;;;;;;;;;;;;4.33;95.79;99508.91;5138658;28;19912;-68
2023/03/24 01:18:13;;;;;;;;;;;;;;;4.28;96.29;99503.28;5135935;28;19956;-69
2023/03/24 01:20:40;;;;;;;;;;;;;;;4.20;96.30;99496.16;5135047;28;19911;-69
2023/03/24 01:23:06;;;;;;;;;;;;;;;4.11;96.41;99496.25;5133270;28;19948;-68
2023/03/24 01:25:32;;;;;;;;;;;;;;;4.00;96.60;99503.38;5133416;27;19912;-70
2023/03/24 01:27:58;;;;;;;;;;;;;;;3.91;97.38;99500.84;5136393;27;20370;-69
2023/03/24 01:30:25;;;;;;;;;;;;;;;3.85;97.88;99512.81;5118399;27;19911;-69
2023/03/24 01:32:50;;;;;;;;;;;;;;;3.81;98.21;99505.34;5136355;27;19915;-69
2023/03/24 01:35:16;;;;;;;;;;;;;;;3.81;98.43;99505.34;5136486;27;19915;-68
2023/03/24 01:37:41;;;;;;;;;;;;;;;3.82;98.20;99502.56;5136355;27;19919;-70
2023/03/24 01:40:08;;;;;;;;;;;;;;;3.84;98.50;99503.25;5136215;27;19964;-69
2023/03/24 01:42:34;;;;;;;;;;;;;;;3.86;99.09;99497.81;5136287;27;19911;-70
2023/03/24 01:45:01;;;;;;;;;;;;;;;3.87;98.75;99486.31;5136280;27;20275;-68
2023/03/24 01:47:26;;;;;;;;;;;;;;;3.86;98.77;99503.09;5136281;27;19957;-70
2023/03/24 01:50:01;;;;;;;;;;;;;;;3.85;98.76;99502.25;5136052;27;19950;-70
2023/03/24 01:52:29;;;;;;;;;;;;;;;3.86;98.46;99501.28;5136001;27;19915;-68
2023/03/24 01:55:17;;;;;;;;;;;;;;;3.86;98.87;99498.66;5136111;27;19915;-70
2023/03/24 01:57:46;;;;;;;;;;;;;;;3.87;98.75;99491.56;5136059;27;19943;-69
2023/03/24 02:00:12;;;;;;;;;;;;;;;3.87;98.79;99497.69;5136093;27;19964;-68
2023/03/24 02:02:41;;;;;;;;;;;;;;;3.88;98.41;99486.16;5117490;27;19919;-68
2023/03/24 02:05:07;;;;;;;;;;;;;;;3.88;98.35;99488.78;5135681;27;19918;-68
2023/03/24 02:07:36;;;;;;;;;;;;;;;3.86;98.58;99482.84;5135991;27;20352;-69
2023/03/24 02:10:07;;;;;;;;;;;;;;;3.85;98.51;99486.47;5136201;27;19916;-70
2023/03/24 02:12:33;;;;;;;;;;;;;;;3.87;98.61;99478.41;5135484;27;20407;-68
2023/03/24 02:14:59;;;;;;;;;;;;;;;3.86;98.87;99479.38;5135473;27;20010;-69
2023/03/24 02:17:43;;;;;;;;;;;;;;;3.84;99.25;99484.81;5135400;27;20456;-69
2023/03/24 02:20:11;;;;;;;;;;;;;;;3.84;99.55;99484.81;5135503;27;19918;-70
2023/03/24 02:22:36;;;;;;;;;;;;;;;3.85;99.22;99494.38;5135356;27;19918;-69
2023/03/24 02:25:21;;;;;;;;;;;;;;;3.85;99.47;99496.16;5135494;27;19915;-68
2023/03/24 02:27:46;;;;;;;;;;;;;;;3.84;99.22;99495.34;5135352;27;20266;-70
2023/03/24 02:30:39;;;;;;;;;;;;;;;3.83;99.22;99495.50;5116909;27;19912;-68
2023/03/24 02:33:07;;;;;;;;;;;;;;;3.81;99.39;99500.91;5104085;27;19923;-70
2023/03/24 02:35:59;;;;;;;;;;;;;;;3.78;99.95;99493.31;5135416;27;19980;-69
2023/03/24 02:38:34;;;;;;;;;;;;;;;3.74;100.00;99489.31;5123248;27;20270;-70
2023/03/24 02:41:03;;;;;;;;;;;;;;;3.67;100.00;99494.34;5116854;27;20281;-69
2023/03/24 02:43:47;;;;;;;;;;;;;;;3.65;100.00;99495.47;5135225;27;20074;-69
2023/03/24 02:46:12;;;;;;;;;;;;;;;3.66;100.00;99495.31;5135012;27;20281;-71
2023/03/24 02:48:56;;;;;;;;;;;;;;;3.64;100.00;99488.56;5134998;27;20011;-72
2023/03/24 02:51:38;;;;;;;;;;;;;;;3.60;100.00;99487.19;5135048;27;19911;-69
2023/03/24 02:54:04;;;;;;;;;;;;;;;3.52;100.00;99471.34;5134620;27;19915;-69
2023/03/24 02:57:05;;;;;;;;;;;;;;;3.64;100.00;99496.44;5134798;27;19933;-69
2023/03/24 02:59:36;;;;;;;;;;;;;;;3.68;100.00;99503.91;5051293;28;19944;-70
2023/03/24 03:02:16;;;;;;;;;;;;;;;3.71;100.00;99508.03;5120746;27;19922;-70
2023/03/24 03:04:44;;;;;;;;;;;;;;;3.70;100.00;99509.00;5134634;27;20362;-70
2023/03/24 03:07:11;;;;;;;;;;;;;;;3.69;100.00;99497.66;5134632;27;20301;-69
2023/03/24 03:09:40;;;;;;;;;;;;;;;3.68;100.00;99496.00;5134262;27;20243;-68
2023/03/24 03:12:07;;;;;;;;;;;;;;;3.71;100.00;99498.34;5134665;27;19974;-68
2023/03/24 03:14:43;;;;;;;;;;;;;;;3.78;100.00;99500.38;5117521;27;20387;-67
2023/03/24 03:17:13;;;;;;;;;;;;;;;3.79;100.00;99500.25;5134599;27;19972;-68
2023/03/24 03:20:04;;;;;;;;;;;;;;;3.78;100.00;99501.22;5134541;27;19942;-68
2023/03/24 03:22:33;;;;;;;;;;;;;;;3.78;100.00;99503.84;5124108;27;20003;-69
2023/03/24 03:25:00;;;;;;;;;;;;;;;3.78;100.00;99500.38;5134196;27;19915;-70
2023/03/24 03:27:30;;;;;;;;;;;;;;;3.75;100.00;99504.13;5134002;27;19962;-69
2023/03/24 03:30:01;;;;;;;;;;;;;;;3.78;100.00;99497.75;5134293;27;20362;-69
2023/03/24 03:32:33;;;;;;;;;;;;;;;3.79;100.00;99496.78;5133876;27;19915;-70
2023/03/24 03:35:01;;;;;;;;;;;;;;;3.80;100.00;99499.25;5134043;27;19966;-69
2023/03/24 03:37:32;;;;;;;;;;;;;;;3.79;100.00;99499.41;5134046;27;20006;-68
2023/03/24 03:40:01;;;;;;;;;;;;;;;3.74;100.00;99497.19;5133880;27;20240;-69
2023/03/24 03:42:27;;;;;;;;;;;;;;;3.70;100.00;99487.94;5133903;27;19911;-72
2023/03/24 03:44:52;;;;;;;;;;;;;;;3.72;100.00;99492.09;5115530;27;19964;-69
2023/03/24 03:47:20;;;;;;;;;;;;;;;3.77;100.00;99493.47;5133565;27;19942;-69
2023/03/24 03:49:46;;;;;;;;;;;;;;;3.84;100.00;99497.16;5133222;27;19916;-69
2023/03/24 03:52:12;;;;;;;;;;;;;;;3.89;100.00;99493.09;5133583;27;19954;-69
2023/03/24 03:54:40;;;;;;;;;;;;;;;3.95;100.00;99489.84;5114565;27;20347;-69
2023/03/24 03:57:05;;;;;;;;;;;;;;;4.00;100.00;99499.91;5133226;27;19915;-70
2023/03/24 03:59:32;;;;;;;;;;;;;;;4.01;100.00;99499.75;5133218;27;19956;-70
2023/03/24 04:02:04;;;;;;;;;;;;;;;3.95;100.00;99492.47;5132964;27;19911;-70
2023/03/24 04:04:45;;;;;;;;;;;;;;;3.89;100.00;99503.63;5133292;27;19919;-71
2023/03/24 04:07:13;;;;;;;;;;;;;;;3.89;100.00;99500.16;5133349;27;19938;-68
2023/03/24 04:09:53;;;;;;;;;;;;;;;3.95;100.00;99505.63;5133463;27;19912;-69
2023/03/24 04:12:22;;;;;;;;;;;;;;;3.95;100.00;99495.09;5133278;27;19911;-69
2023/03/24 04:14:47;;;;;;;;;;;;;;;3.98;100.00;99497.44;5133255;27;19911;-69
2023/03/24 04:17:31;;;;;;;;;;;;;;;3.96;100.00;99496.75;5133489;27;19919;-71
2023/03/24 04:20:05;;;;;;;;;;;;;;;3.96;100.00;99507.28;5133493;28;19957;-68
2023/03/24 04:22:44;;;;;;;;;;;;;;;3.99;100.00;99504.34;5133294;28;19919;-66
2023/03/24 04:25:18;;;;;;;;;;;;;;;4.10;100.00;99515.66;5134236;28;20017;-68
2023/03/24 04:27:59;;;;;;;;;;;;;;;4.21;100.00;99518.06;5133784;28;19912;-67
2023/03/24 04:30:41;;;;;;;;;;;;;;;4.31;100.00;99518.78;5133889;28;19919;-67
2023/03/24 04:33:10;;;;;;;;;;;;;;;4.37;100.00;99520.84;5134015;28;19915;-66
2023/03/24 04:35:45;;;;;;;;;;;;;;;4.36;100.00;99513.91;5135912;28;19919;-68
2023/03/24 04:38:31;;;;;;;;;;;;;;;4.33;100.00;99516.81;5134137;28;19911;-68
2023/03/24 04:40:57;;;;;;;;;;;;;;;4.34;100.00;99521.16;5133291;28;19916;-69
2023/03/24 04:43:25;;;;;;;;;;;;;;;4.47;100.00;99518.09;5133137;28;19987;-66
2023/03/24 04:45:51;;;;;;;;;;;;;;;4.57;100.00;99522.28;5133343;28;20267;-67
2023/03/24 04:48:17;;;;;;;;;;;;;;;4.68;100.00;99526.50;5133196;28;19911;-68
2023/03/24 04:50:52;;;;;;;;;;;;;;;4.77;100.00;99524.72;5133144;28;20384;-69
2023/03/24 04:53:18;;;;;;;;;;;;;;;4.74;100.00;99514.50;5133447;28;19964;-67
2023/03/24 04:55:49;;;;;;;;;;;;;;;4.75;100.00;99513.50;5132944;28;20013;-67
2023/03/24 04:58:18;;;;;;;;;;;;;;;4.76;100.00;99523.06;5133284;28;19916;-68
2023/03/24 05:00:44;;;;;;;;;;;;;;;4.82;100.00;99517.16;5133201;27;19935;-66
2023/03/24 05:03:15;;;;;;;;;;;;;;;4.89;100.00;99523.47;5137256;27;20315;-67
2023/03/24 05:05:41;;;;;;;;;;;;;;;4.94;100.00;99522.03;5137439;27;19911;-67
2023/03/24 05:08:07;;;;;;;;;;;;;;;4.97;100.00;99520.91;5136833;27;19911;-65
2023/03/24 05:10:33;;;;;;;;;;;;;;;4.95;100.00;99522.88;5137080;27;19919;-67
2023/03/24 05:12:58;;;;;;;;;;;;;;;5.01;100.00;99524.03;5136725;27;19911;-68
2023/03/24 05:15:23;;;;;;;;;;;;;;;5.12;100.00;99531.66;5136775;27;19911;-68
2023/03/24 05:17:50;;;;;;;;;;;;;;;5.23;100.00;99532.25;5136804;27;19911;-67
2023/03/24 05:20:15;;;;;;;;;;;;;;;5.36;100.00;99525.69;5136521;27;19915;-67
2023/03/24 05:22:41;;;;;;;;;;;;;;;5.48;100.00;99524.38;5136698;27;19970;-67
2023/03/24 05:25:06;;;;;;;;;;;;;;;5.57;100.00;99528.72;5136934;27;19918;-67
2023/03/24 05:27:32;;;;;;;;;;;;;;;5.60;100.00;99529.22;5137593;27;19919;-67
2023/03/24 05:29:57;;;;;;;;;;;;;;;5.65;99.73;99526.09;5137692;27;20079;-66
2023/03/24 05:32:22;;;;;;;;;;;;;;;5.70;99.93;99528.25;5136846;27;19911;-68
2023/03/24 05:34:47;;;;;;;;;;;;;;;5.76;99.78;99531.06;5117953;27;19915;-67
2023/03/24 05:37:15;;;;;;;;;;;;;;;5.76;99.76;99531.06;5136251;27;19915;-66
2023/03/24 05:39:41;;;;;;;;;;;;;;;5.65;97.70;99535.84;5136058;27;19951;-68
2023/03/24 05:42:06;;;;;;;;;;;;;;;5.54;97.71;99531.69;5136113;27;19947;-69
2023/03/24 05:44:32;;;;;;;;;;;;;;;5.48;98.30;99542.88;5136524;27;19915;-67
2023/03/24 05:46:57;;;;;;;;;;;;;;;5.52;99.27;99541.59;5140724;27;19911;-70
2023/03/24 05:49:22;;;;;;;;;;;;;;;5.62;98.98;99542.28;5138884;27;19988;-67
2023/03/24 05:51:47;;;;;;;;;;;;;;;5.63;98.46;99543.94;5133676;27;19987;-68
2023/03/24 05:54:13;;;;;;;;;;;;;;;5.63;98.38;99549.22;5115729;28;19919;-68
2023/03/24 05:56:38;;;;;;;;;;;;;;;5.68;98.78;99546.09;5115055;28;19970;-67
2023/03/24 05:59:03;;;;;;;;;;;;;;;5.81;99.28;99552.59;5115444;28;19919;-70
2023/03/24 06:01:29;;;;;;;;;;;;;;;5.94;98.48;99546.84;5115008;28;19919;-66
2023/03/24 06:03:54;;;;;;;;;;;;;;;6.07;98.22;99546.34;5115176;28;19940;-67
2023/03/24 06:06:19;;;;;;;;;;;;;;;6.16;97.90;99548.03;5115365;28;20052;-67
2023/03/24 06:08:45;;;;;;;;;;;;;;;6.21;97.68;99553.66;5115057;28;20030;-70
2023/03/24 06:11:10;;;;;;;;;;;;;;;6.16;97.30;99550.69;5114873;28;20015;-69
2023/03/24 06:13:36;;;;;;;;;;;;;;;6.13;97.47;99551.00;5114922;28;19911;-67
2023/03/24 06:16:02;;;;;;;;;;;;;;;6.17;97.36;99547.88;5115339;28;19915;-66
2023/03/24 06:18:29;;;;;;;;;;;;;;;6.22;97.93;99550.03;5114841;28;20252;-69
2023/03/24 06:20:55;;;;;;;;;;;;;;;6.31;98.24;99550.84;5114695;28;20408;-70
2023/03/24 06:23:26;;;;;;;;;;;;;;;6.32;97.77;99548.03;5114648;28;19946;-67
2023/03/24 06:25:52;;;;;;;;;;;;;;;6.30;97.62;99542.09;5096642;28;20016;-69
2023/03/24 06:28:17;;;;;;;;;;;;;;;6.29;98.00;99540.44;5115452;28;19918;-68
2023/03/24 06:30:43;;;;;;;;;;;;;;;6.36;98.47;99546.75;5117672;28;19912;-68
2023/03/24 06:33:10;;;;;;;;;;;;;;;6.48;98.27;99550.69;5115061;28;20014;-67
2023/03/24 06:35:35;;;;;;;;;;;;;;;6.55;97.54;99544.72;5114193;28;19924;-67
2023/03/24 06:38:01;;;;;;;;;;;;;;;6.64;98.02;99546.38;5114030;28;19976;-69
2023/03/24 06:40:26;;;;;;;;;;;;;;;6.74;97.78;99539.09;5113740;28;19912;-66
2023/03/24 06:42:51;;;;;;;;;;;;;;;6.87;97.57;99544.69;5113616;28;19973;-67
2023/03/24 06:45:17;;;;;;;;;;;;;;;6.96;97.10;99541.06;5113678;28;19919;-68
2023/03/24 06:47:42;;;;;;;;;;;;;;;7.03;97.09;99549.13;5113386;28;20006;-67
2023/03/24 06:50:08;;;;;;;;;;;;;;;7.13;97.10;99550.59;5113514;28;19977;-67
2023/03/24 06:52:34;;;;;;;;;;;;;;;7.11;96.38;99547.28;5095124;28;19912;-66
2023/03/24 06:55:02;;;;;;;;;;;;;;;7.06;95.86;99541.69;5113352;28;20366;-68
2023/03/24 06:57:28;;;;;;;;;;;;;;;7.01;96.05;99545.84;5113395;28;19916;-68
2023/03/24 06:59:54;;;;;;;;;;;;;;;6.95;96.37;99542.06;5113752;28;19911;-67
2023/03/24 07:02:33;;;;;;;;;;;;;;;6.90;96.84;99543.53;5113521;28;19912;-68
2023/03/24 07:05:03;;;;;;;;;;;;;;;6.99;97.73;99546.00;5113393;28;19955;-68
2023/03/24 07:07:28;;;;;;;;;;;;;;;7.11;97.13;99549.94;5114344;28;19923;-69
2023/03/24 07:09:57;;;;;;;;;;;;;;;7.17;96.71;99544.94;5113645;28;20282;-67
2023/03/24 07:12:22;;;;;;;;;;;;;;;7.24;96.53;99553.88;5114483;28;20359;-67
2023/03/24 07:14:48;;;;;;;;;;;;;;;7.24;96.06;99551.25;5114545;28;19919;-73
2023/03/24 07:17:13;;;;;;;;;;;;;;;7.31;96.54;99560.97;5114113;28;19916;-73
2023/03/24 07:19:38;;;;;;;;;;;;;;;7.39;96.30;99558.28;5113014;28;19918;-68
2023/03/24 07:22:07;;;;;;;;;;;;;;;7.43;96.43;99564.06;5113114;28;19956;-67
2023/03/24 07:24:33;;;;;;;;;;;;;;;7.43;96.12;99572.00;5112886;28;20003;-66
2023/03/24 07:26:58;;;;;;;;;;;;;;;7.37;95.59;99567.41;5113159;28;19989;-70
2023/03/24 07:29:23;;;;;;;;;;;;;;;7.30;95.89;99577.03;5112709;28;19912;-67
2023/03/24 07:31:49;;;;;;;;;;;;;;;7.29;96.72;99570.91;5112584;28;19912;-69
2023/03/24 07:34:19;;;;;;;;;;;;;;;7.21;96.37;99567.44;4991781;28;3415415;-68
2023/03/24 07:36:44;;;;;;;;;;;;;;;7.09;98.91;99572.28;5113169;28;19915;-68
2023/03/24 07:39:09;;;;;;;;;;;;;;;7.03;99.70;99565.84;5113466;28;20018;-69
2023/03/24 07:41:35;;;;;;;;;;;;;;;6.99;100.00;99564.53;5113322;28;19916;-69
2023/03/24 07:44:00;;;;;;;;;;;;;;;6.94;100.00;99556.28;5113529;28;19951;-69
2023/03/24 07:46:26;;;;;;;;;;;;;;;6.93;100.00;99553.78;5113193;28;20044;-69
2023/03/24 07:48:51;;;;;;;;;;;;;;;6.87;100.00;99571.16;5094593;28;19912;-71
2023/03/24 07:51:18;;;;;;;;;;;;;;;6.81;100.00;99571.84;5113405;28;20366;-68
2023/03/24 07:53:44;;;;;;;;;;;;;;;6.87;100.00;99570.34;5126699;27;19950;-68
2023/03/24 07:56:10;;;;;;;;;;;;;;;6.97;100.00;99576.28;5133540;27;20483;-69
2023/03/24 07:58:36;;;;;;;;;;;;;;;7.01;100.00;99575.78;5134258;27;19952;-71
2023/03/24 08:01:01;;;;;;;;;;;;;;;7.03;100.00;99580.91;5133611;27;19959;-68
2023/03/24 08:03:27;;;;;;;;;;;;;;;7.07;100.00;99585.69;5133294;27;19918;-69
2023/03/24 08:05:54;;;;;;;;;;;;;;;7.13;99.96;99585.00;5133080;27;20358;-67
2023/03/24 08:08:19;;;;;;;;;;;;;;;7.28;99.83;99576.38;5115260;28;20014;-68
2023/03/24 08:10:45;;;;;;;;;;;;;;;7.45;99.54;99580.59;5133541;27;19990;-68
2023/03/24 08:13:10;;;;;;;;;;;;;;;7.56;98.90;99568.84;5133475;27;20354;-70
2023/03/24 08:15:36;;;;;;;;;;;;;;;7.56;98.56;99577.59;5133486;27;20002;-70
2023/03/24 08:18:02;;;;;;;;;;;;;;;7.50;97.70;99572.97;5133345;27;19915;-68
2023/03/24 08:20:28;;;;;;;;;;;;;;;7.49;98.15;99575.78;5133484;27;19972;-67
2023/03/24 08:22:54;;;;;;;;;;;;;;;7.61;98.06;99572.59;5133394;28;19917;-66
2023/03/24 08:25:21;;;;;;;;;;;;;;;7.65;98.13;99581.88;5133640;28;19934;-67
2023/03/24 08:27:47;;;;;;;;;;;;;;;7.64;97.82;99574.91;5133132;28;19911;-66
2023/03/24 08:30:16;;;;;;;;;;;;;;;7.64;97.48;99585.50;5133147;28;19994;-66
2023/03/24 08:32:44;;;;;;;;;;;;;;;7.54;96.74;99584.91;5132669;28;19912;-67
2023/03/24 08:35:11;;;;;;;;;;;;;;;7.49;97.31;99581.91;5133255;27;19984;-67
2023/03/24 08:37:36;;;;;;;;;;;;;;;7.48;98.18;99585.56;5136761;27;20317;-67
2023/03/24 08:40:04;;;;;;;;;;;;;;;7.55;97.45;99589.19;5137926;27;19912;-66
2023/03/24 08:42:29;;;;;;;;;;;;;;;7.64;97.47;99584.69;5119555;27;19912;-68
2023/03/24 08:44:55;;;;;;;;;;;;;;;7.75;97.56;99587.78;5137945;27;19916;-68
2023/03/24 08:47:20;;;;;;;;;;;;;;;7.85;97.07;99587.56;5137982;27;20302;-67
2023/03/24 08:49:45;;;;;;;;;;;;;;;7.91;96.81;99591.34;5119500;27;19912;-67
2023/03/24 08:52:11;;;;;;;;;;;;;;;7.91;96.44;99596.66;5138183;27;19911;-69
2023/03/24 08:54:36;;;;;;;;;;;;;;;7.88;96.61;99602.31;5138285;27;19912;-66
2023/03/24 08:57:02;;;;;;;;;;;;;;;7.86;96.43;99594.53;5119330;27;20398;-66
2023/03/24 08:59:27;;;;;;;;;;;;;;;7.85;96.84;99592.88;5137108;27;19937;-66
2023/03/24 09:01:53;;;;;;;;;;;;;;;7.87;97.30;99598.00;5118546;27;20243;-66
2023/03/24 09:04:18;;;;;;;;;;;;;;;7.92;97.30;99603.59;5137446;27;19912;-66
2023/03/24 09:06:43;;;;;;;;;;;;;;;7.92;97.93;99600.97;5127429;27;19951;-68
2023/03/24 09:09:09;;;;;;;;;;;;;;;7.93;97.71;99599.94;5112237;27;20373;-67
2023/03/24 09:11:34;;;;;;;;;;;;;;;7.91;97.38;99604.59;5126970;27;19919;-67
2023/03/24 09:13:59;;;;;;;;;;;;;;;7.89;97.77;99609.25;5124524;27;20363;-66
2023/03/24 09:16:25;;;;;;;;;;;;;;;7.83;98.28;99613.44;5126750;27;20347;-66
2023/03/24 09:18:51;;;;;;;;;;;;;;;7.83;98.74;99610.78;5124758;27;19911;-67
2023/03/24 09:21:16;;;;;;;;;;;;;;;7.86;98.99;99615.72;5122505;27;20351;-68
2023/03/24 09:23:41;;;;;;;;;;;;;;;7.86;98.61;99621.03;5126917;27;20377;-66
2023/03/24 09:26:07;;;;;;;;;;;;;;;7.84;98.13;99628.34;5125570;27;20356;-66
2023/03/24 09:28:32;;;;;;;;;;;;;;;7.83;97.66;99631.16;5124954;27;19911;-67
2023/03/24 09:30:59;;;;;;;;;;;;;;;7.73;98.11;99632.16;5125377;27;19912;-67
2023/03/24 09:33:25;;;;;;;;;;;;;;;7.68;98.33;99629.22;5124437;27;19915;-73
2023/03/24 09:35:53;;;;;;;;;;;;;;;7.79;97.92;99625.34;5124267;27;20018;-68
2023/03/24 09:38:19;;;;;;;;;;;;;;;7.89;97.71;99626.00;5125391;27;19935;-71
2023/03/24 09:40:47;;;;;;;;;;;;;;;7.94;97.97;99633.41;5124992;27;20359;-68
2023/03/24 09:43:18;;;;;;;;;;;;;;;7.96;97.60;99634.06;5130439;27;19998;-67
2023/03/24 09:45:48;;;;;;;;;;;;;;;7.97;97.87;99638.38;5127179;27;19926;-68
2023/03/24 09:48:22;;;;;;;;;;;;;;;7.94;98.08;99628.94;5121237;27;19912;-69
2023/03/24 09:50:55;;;;;;;;;;;;;;;7.96;98.30;99647.31;5108779;27;19918;-69
2023/03/24 09:53:36;;;;;;;;;;;;;;;7.99;98.28;99637.19;5125542;27;19911;-69
2023/03/24 09:56:15;;;;;;;;;;;;;;;8.15;98.29;99649.56;5125801;27;19915;-69
2023/03/24 09:58:44;;;;;;;;;;;;;;;8.12;98.28;99643.78;5123502;27;20018;-69
2023/03/24 10:01:14;;;;;;;;;;;;;;;8.02;98.93;99644.81;5126212;27;19975;-66
2023/03/24 10:03:39;;;;;;;;;;;;;;;7.97;99.65;99628.59;5122451;27;19911;-67
2023/03/24 10:06:08;;;;;;;;;;;;;;;8.03;99.52;99633.19;5126145;27;20247;-68
2023/03/24 10:08:56;;;;;;;;;;;;;;;8.24;98.84;99637.91;5122090;27;19911;-68
2023/03/24 10:11:36;;;;;;;;;;;;;;;8.54;97.50;99630.09;5087911;27;19916;-69
2023/03/24 10:14:11;;;;;;;;;;;;;;;8.78;97.19;99637.88;5119435;27;19922;-69
2023/03/24 10:16:36;;;;;;;;;;;;;;;8.75;95.61;99640.06;5126768;27;19911;-66
2023/03/24 10:19:05;;;;;;;;;;;;;;;8.84;95.53;99642.47;5123306;27;19918;-74
2023/03/24 10:21:32;;;;;;;;;;;;;;;8.86;95.41;99629.84;5124730;27;19912;-67
2023/03/24 10:24:27;;;;;;;;;;;;;;;8.75;94.61;99619.66;5129435;27;19942;-69
2023/03/24 10:26:59;;;;;;;;;;;;;;;8.79;95.88;99623.59;5094810;28;19947;-70
2023/03/24 10:29:24;;;;;;;;;;;;;;;8.79;95.80;99622.78;5114436;28;19919;-70
2023/03/24 10:31:51;;;;;;;;;;;;;;;8.83;95.63;99613.44;5114387;28;19912;-67
2023/03/24 10:34:17;;;;;;;;;;;;;;;8.74;95.71;99625.97;5114608;28;19915;-73
2023/03/24 10:36:43;;;;;;;;;;;;;;;8.79;95.87;99615.66;5114781;28;19916;-72
2023/03/24 10:39:14;;;;;;;;;;;;;;;8.87;95.73;99618.22;5114761;28;19951;-67
2023/03/24 10:41:41;;;;;;;;;;;;;;;8.83;95.56;99619.59;5115065;28;20351;-69
2023/03/24 10:44:06;;;;;;;;;;;;;;;8.72;95.77;99627.16;5115005;28;20355;-67
2023/03/24 10:46:32;;;;;;;;;;;;;;;8.72;95.84;99628.00;5115355;28;19912;-67
2023/03/24 10:49:14;;;;;;;;;;;;;;;8.74;95.19;99630.47;5114368;28;19965;-68
2023/03/24 10:51:45;;;;;;;;;;;;;;;8.59;95.40;99627.75;5114182;28;20267;-69
2023/03/24 10:54:18;;;;;;;;;;;;;;;8.65;95.67;99627.84;5114632;28;20274;-68
2023/03/24 10:56:45;;;;;;;;;;;;;;;8.64;95.87;99626.19;5114343;28;19912;-68
2023/03/24 10:59:34;;;;;;;;;;;;;;;8.67;95.67;99646.25;5113530;28;19916;-67
2023/03/24 11:02:09;;;;;;;;;;;;;;;8.64;95.64;99657.22;5102940;28;19923;-68
2023/03/24 11:04:37;;;;;;;;;;;;;;;8.49;95.84;99659.81;5113972;28;20014;-68
2023/03/24 11:07:15;;;;;;;;;;;;;;;8.32;96.63;99659.06;5095822;28;20274;-72
2023/03/24 11:09:45;;;;;;;;;;;;;;;8.37;96.41;99662.03;5078873;28;19919;-68
2023/03/24 11:12:30;;;;;;;;;;;;;;;8.25;96.61;99657.28;5113871;28;19916;-68
2023/03/24 11:15:16;;;;;;;;;;;;;;;8.19;97.42;99668.59;5113740;28;19911;-69
2023/03/24 11:17:41;;;;;;;;;;;;;;;8.10;97.95;99674.94;5113806;28;20057;-67
2023/03/24 11:20:25;;;;;;;;;;;;;;;8.16;97.46;99664.47;5113727;28;19951;-66
2023/03/24 11:22:56;;;;;;;;;;;;;;;8.28;97.56;99678.16;5113588;28;19919;-69
2023/03/24 11:25:25;;;;;;;;;;;;;;;8.43;97.31;99680.94;5113634;28;19911;-68
2023/03/24 11:27:51;;;;;;;;;;;;;;;8.37;96.90;99672.66;5113270;28;19912;-67
2023/03/24 11:30:17;;;;;;;;;;;;;;;8.32;96.80;99672.31;5113680;28;19916;-68
2023/03/24 11:32:45;;;;;;;;;;;;;;;8.32;97.38;99669.66;5113422;28;19957;-70
2023/03/24 11:35:16;;;;;;;;;;;;;;;8.46;97.21;99670.78;5113604;28;19915;-70
2023/03/24 11:37:42;;;;;;;;;;;;;;;8.65;96.70;99675.63;5113486;28;19984;-70
2023/03/24 11:40:11;;;;;;;;;;;;;;;8.62;95.98;99675.16;5094885;28;20363;-70
2023/03/24 11:42:44;;;;;;;;;;;;;;;8.66;96.38;99671.97;5113172;28;20022;-69
2023/03/24 11:45:21;;;;;;;;;;;;;;;8.67;96.34;99667.47;5113532;28;19962;-72
2023/03/24 11:47:46;;;;;;;;;;;;;;;8.60;95.91;99662.06;5113469;28;19928;-68
2023/03/24 11:50:12;;;;;;;;;;;;;;;8.57;96.86;99672.22;5113089;28;20020;-68
2023/03/24 11:52:45;;;;;;;;;;;;;;;8.44;96.62;99667.50;5112905;28;20390;-68
2023/03/24 11:55:27;;;;;;;;;;;;;;;8.33;97.25;99666.03;5112979;28;19912;-67
2023/03/24 11:58:16;;;;;;;;;;;;;;;8.22;98.34;99668.25;5113249;28;20275;-68
2023/03/24 12:00:54;;;;;;;;;;;;;;;8.08;98.95;99672.44;5112358;28;19915;-69
2023/03/24 12:03:29;;;;;;;;;;;;;;;7.88;99.81;99672.06;5112252;28;20002;-68
2023/03/24 12:06:11;;;;;;;;;;;;;;;7.74;100.00;99678.88;5112259;28;19911;-67
2023/03/24 12:08:45;;;;;;;;;;;;;;;7.55;100.00;99675.81;5112125;28;20343;-67
2023/03/24 12:11:15;;;;;;;;;;;;;;;7.48;100.00;99686.22;5111909;28;19919;-68
2023/03/24 12:13:42;;;;;;;;;;;;;;;7.42;100.00;99676.31;5111951;28;19957;-68
2023/03/24 12:16:08;;;;;;;;;;;;;;;7.38;100.00;99672.34;5112988;28;19911;-68
2023/03/24 12:18:51;;;;;;;;;;;;;;;7.46;100.00;99672.34;5112657;28;19911;-67
2023/03/24 12:21:35;;;;;;;;;;;;;;;7.58;100.00;99668.34;5112694;28;19951;-67
2023/03/24 12:24:13;;;;;;;;;;;;;;;7.74;100.00;99665.63;5112572;28;19947;-68
2023/03/24 12:26:38;;;;;;;;;;;;;;;7.94;100.00;99662.56;5112767;28;19965;-68
2023/03/24 12:29:06;;;;;;;;;;;;;;;8.02;100.00;99668.66;5112220;28;19955;-67
2023/03/24 12:31:53;;;;;;;;;;;;;;;8.07;100.00;99671.63;5118178;28;19961;-67
2023/03/24 12:34:25;;;;;;;;;;;;;;;8.02;100.00;99667.84;5120282;28;19923;-68
2023/03/24 12:37:09;;;;;;;;;;;;;;;8.14;100.00;99681.56;5102603;28;19980;-67
2023/03/24 12:39:42;;;;;;;;;;;;;;;8.22;99.62;99677.03;5123705;28;20010;-67
2023/03/24 12:42:12;;;;;;;;;;;;;;;8.28;99.49;99681.63;5103809;28;19911;-68
2023/03/24 12:44:53;;;;;;;;;;;;;;;8.33;98.88;99681.97;5102942;28;19950;-69
2023/03/24 12:47:18;;;;;;;;;;;;;;;8.34;99.34;99680.97;5118806;28;19912;-68
2023/03/24 12:49:43;;;;;;;;;;;;;;;8.41;98.72;99688.25;5104915;28;20339;-66
2023/03/24 12:52:08;;;;;;;;;;;;;;;8.44;98.27;99682.59;5124827;28;19933;-69
2023/03/24 12:54:46;;;;;;;;;;;;;;;8.43;96.93;99691.56;5121289;28;19957;-68
2023/03/24 12:57:14;;;;;;;;;;;;;;;8.27;97.27;99684.47;5121817;28;19923;-68
2023/03/24 12:59:42;;;;;;;;;;;;;;;8.29;97.77;99680.63;5120699;28;19934;-67
2023/03/24 13:02:11;;;;;;;;;;;;;;;8.32;97.21;99674.97;5120354;28;19922;-67
2023/03/24 13:04:40;;;;;;;;;;;;;;;8.32;96.87;99685.59;5123652;28;19916;-66